createdAt,value
2023-03-11T00:00:51.021Z,8.90
2023-03-11T00:03:24.011Z,8.68
2023-03-11T00:06:00.222Z,8.83
2023-03-11T00:08:38.473Z,8.70
2023-03-11T00:11:17.694Z,8.71
2023-03-11T00:13:50.090Z,8.66
2023-03-11T00:16:22.428Z,8.64
2023-03-11T00:18:53.434Z,8.48
2023-03-11T00:21:23.664Z,8.30
2023-03-11T00:23:55.049Z,8.38
2023-03-11T00:26:24.170Z,8.42
2023-03-11T00:28:53.152Z,8.38
2023-03-11T00:31:22.815Z,8.38
2023-03-11T00:33:51.800Z,8.26
2023-03-11T00:36:40.165Z,8.25
2023-03-11T00:39:11.944Z,8.07
2023-03-11T00:41:40.957Z,8.25
2023-03-11T00:44:09.846Z,8.28
2023-03-11T00:46:44.339Z,8.14
2023-03-11T00:49:18.718Z,8.16
2023-03-11T00:51:47.680Z,8.09
2023-03-11T00:54:17.546Z,8.04
2023-03-11T00:56:46.670Z,8.02
2023-03-11T00:59:18.517Z,8.04
2023-03-11T01:01:50.225Z,7.99
2023-03-11T01:04:19.305Z,7.90
2023-03-11T01:06:48.353Z,7.75
2023-03-11T01:09:26.903Z,7.56
2023-03-11T01:11:58.998Z,7.39
2023-03-11T01:14:30.850Z,7.39
2023-03-11T01:17:01.469Z,7.47
2023-03-11T01:20:04.026Z,7.19
2023-03-11T01:22:27.772Z,7.33
2023-03-11T01:24:57.376Z,7.32
2023-03-11T01:27:31.874Z,6.97
2023-03-11T01:30:24.550Z,6.60
2023-03-11T01:32:58.329Z,6.50
2023-03-11T01:35:29.831Z,6.94
2023-03-11T01:38:10.480Z,6.96
2023-03-11T01:40:48.308Z,6.89
2023-03-11T01:43:40.055Z,6.41
2023-03-11T01:46:29.448Z,6.51
2023-03-11T01:49:05.124Z,6.46
2023-03-11T01:52:05.229Z,6.53
2023-03-11T01:54:39.473Z,6.32
2023-03-11T01:57:13.906Z,6.37
2023-03-11T01:59:49.944Z,6.29
2023-03-11T02:02:39.248Z,6.52
2023-03-11T02:05:09.597Z,6.80
2023-03-11T02:07:41.355Z,6.82
2023-03-11T02:10:14.449Z,6.79
2023-03-11T02:12:55.700Z,6.88
2023-03-11T02:15:31.109Z,6.85
2023-03-11T02:18:29.146Z,6.81
2023-03-11T02:22:07.429Z,6.78
2023-03-11T02:25:22.410Z,6.77
2023-03-11T02:31:22.623Z,6.69
2023-03-11T02:33:55.695Z,6.60
2023-03-11T02:36:43.107Z,6.64
2023-03-11T02:39:15.453Z,6.65
2023-03-11T02:41:48.593Z,6.62
2023-03-11T02:44:18.488Z,6.66
2023-03-11T02:46:47.833Z,6.68
2023-03-11T02:50:15.587Z,6.64
2023-03-11T02:53:05.005Z,6.60
2023-03-11T02:55:36.971Z,6.49
2023-03-11T02:58:08.857Z,6.57
2023-03-11T03:00:41.643Z,6.10
2023-03-11T03:03:22.069Z,6.37
2023-03-11T03:05:54.563Z,6.29
2023-03-11T03:08:36.285Z,6.42
2023-03-11T03:11:05.946Z,6.29
2023-03-11T03:13:38.317Z,6.50
2023-03-11T03:16:08.001Z,6.19
2023-03-11T03:18:36.936Z,6.42
2023-03-11T03:21:06.633Z,6.39
2023-03-11T03:23:38.426Z,6.11
2023-03-11T03:26:07.978Z,6.39
2023-03-11T03:28:39.555Z,6.41
2023-03-11T07:45:04.131Z,5.35
2023-03-11T18:43:11.610Z,7.92
2023-03-11T18:45:44.385Z,7.96
2023-03-11T18:48:22.785Z,7.84
2023-03-11T18:50:56.405Z,7.98
2023-03-11T18:53:26.170Z,8.16
2023-03-11T18:56:05.413Z,8.06
2023-03-11T18:58:49.141Z,8.00
2023-03-11T19:01:22.427Z,7.84
2023-03-11T19:03:54.400Z,7.99
2023-03-11T19:06:25.063Z,8.17
2023-03-11T19:08:54.789Z,8.46
2023-03-11T19:11:25.471Z,8.58
2023-03-11T19:13:54.835Z,8.36
2023-03-11T19:16:26.865Z,8.42
2023-03-11T19:18:56.760Z,8.58
2023-03-11T19:21:26.674Z,8.27
2023-03-11T19:23:57.394Z,8.90
2023-03-11T19:26:43.278Z,8.64
2023-03-11T19:29:14.403Z,8.89
2023-03-11T19:31:46.906Z,8.82
2023-03-11T19:34:16.120Z,9.25
2023-03-11T19:36:47.496Z,9.51
2023-03-11T19:39:16.573Z,9.12
2023-03-11T19:41:45.447Z,9.18
2023-03-11T19:44:14.543Z,9.33
2023-03-11T19:46:44.075Z,9.17
2023-03-11T19:49:13.134Z,9.38
2023-03-11T19:51:49.474Z,9.34
2023-03-11T19:54:19.631Z,9.27
2023-03-11T19:56:49.358Z,9.20
2023-03-11T19:59:18.635Z,9.35
2023-03-11T20:01:47.612Z,8.78
2023-03-11T20:04:17.232Z,8.98
2023-03-11T20:06:46.810Z,9.34
2023-03-11T20:09:17.060Z,9.24
2023-03-11T20:11:46.600Z,9.43
2023-03-11T20:14:15.555Z,9.62
2023-03-11T20:16:44.706Z,9.49
2023-03-11T20:19:13.802Z,9.59
2023-03-11T20:21:45.716Z,9.68
2023-03-11T20:24:15.310Z,9.58
2023-03-11T20:26:44.240Z,9.55
2023-03-11T20:29:13.339Z,9.10
2023-03-11T20:31:42.521Z,9.11
2023-03-11T20:34:12.355Z,9.27
2023-03-11T20:36:41.425Z,9.20
2023-03-11T20:39:10.800Z,9.36
2023-03-11T20:41:41.526Z,9.21
2023-03-11T20:44:13.721Z,9.12
2023-03-11T20:46:43.816Z,9.36
2023-03-11T20:49:13.246Z,9.44
2023-03-11T20:51:44.599Z,9.37
2023-03-11T20:54:13.625Z,9.66
2023-03-11T20:56:42.844Z,10.01
2023-03-11T20:59:15.065Z,9.69
2023-03-11T21:01:44.711Z,9.81
2023-03-11T21:04:16.000Z,9.77
2023-03-11T21:06:45.694Z,9.88
2023-03-11T21:09:16.379Z,9.91
2023-03-11T21:11:45.935Z,9.57
2023-03-11T21:14:19.475Z,9.55
2023-03-11T21:16:49.194Z,9.70
2023-03-11T21:19:19.220Z,10.00
2023-03-11T21:21:48.467Z,10.15
2023-03-11T21:24:17.560Z,9.67
2023-03-11T21:26:46.675Z,9.87
2023-03-11T21:29:15.575Z,9.85
2023-03-11T21:31:44.730Z,10.26
2023-03-11T21:34:13.893Z,10.89
2023-03-11T21:36:43.204Z,11.00
2023-03-11T21:39:12.243Z,11.30
2023-03-11T21:41:41.418Z,11.38
2023-03-11T21:44:10.330Z,12.03
2023-03-11T21:46:39.267Z,12.35
2023-03-11T21:49:08.534Z,12.12
2023-03-11T21:51:37.873Z,11.11
2023-03-11T21:54:07.230Z,10.91
2023-03-11T21:56:36.334Z,11.21
2023-03-11T21:59:05.716Z,11.46
2023-03-11T22:01:35.263Z,10.49
2023-03-11T22:04:05.194Z,10.60
2023-03-11T22:06:34.355Z,10.61
2023-03-11T22:09:04.281Z,10.52
2023-03-11T22:11:33.766Z,10.45
2023-03-11T22:14:02.775Z,10.42
2023-03-11T22:16:31.859Z,10.27
2023-03-11T22:19:00.958Z,10.28
2023-03-11T22:21:29.937Z,10.44
2023-03-11T22:23:58.983Z,10.69
2023-03-11T22:26:28.249Z,10.56
2023-03-11T22:28:57.149Z,10.96
2023-03-11T22:31:26.325Z,10.60
2023-03-11T22:33:55.223Z,10.30
2023-03-11T22:36:24.216Z,11.25
2023-03-11T22:38:53.216Z,10.80
2023-03-11T22:41:22.178Z,10.94
2023-03-11T22:43:51.032Z,11.22
2023-03-11T22:46:20.134Z,11.13
2023-03-11T22:48:49.234Z,11.23
2023-03-11T22:51:18.542Z,10.74
2023-03-11T22:53:47.877Z,10.44
2023-03-11T22:56:18.493Z,10.31
2023-03-11T22:58:47.809Z,10.81
2023-03-11T23:01:17.346Z,10.77
2023-03-11T23:03:46.836Z,11.23
2023-03-11T23:06:18.300Z,11.27
2023-03-11T23:08:47.981Z,11.25
2023-03-11T23:11:19.649Z,10.06
2023-03-11T23:13:50.366Z,10.86
2023-03-11T23:16:22.465Z,10.85
2023-03-11T23:18:54.131Z,10.65
2023-03-11T23:21:27.365Z,10.68
2023-03-11T23:23:57.720Z,10.41
2023-03-11T23:26:27.021Z,10.73
2023-03-11T23:28:56.581Z,10.74
2023-03-11T23:31:27.038Z,10.65
2023-03-11T23:33:56.822Z,10.59
2023-03-11T23:36:31.204Z,10.41
2023-03-11T23:39:00.241Z,10.50
2023-03-11T23:41:29.954Z,10.56
2023-03-11T23:43:59.233Z,10.20
2023-03-11T23:46:28.369Z,10.24
2023-03-11T23:48:57.404Z,10.27
2023-03-11T23:51:26.337Z,9.97
2023-03-11T23:53:56.714Z,9.63
2023-03-11T23:56:25.882Z,10.00
2023-03-11T23:58:54.804Z,10.02
